Startpagina
METAR-TAF:

METAR-TAF

Vliegvelden :

Fort-de-France, Martinique

breedte: 14-36N, lengte: 061-00W, hoogte: 5 m

Actueel weer

Dit bericht is 17 minuten geleden gemaakt, om 00:30 UTC
Wind 6 kt uit het oosten
Temperatuur 28°C
Vochtigheid 79%
Druk 1014 hPa
Zicht 10 km of meer
Weinig wolken op 2200 ft
Verspreide wolken op 5800 ft

METAR: TFFF 270030Z AUTO 09006KT 9999 FEW022 SCT058 28/24 Q1014 NOSIG

Tijdstip: 20:47 (00:47 UTC)

Verwachting

Dit bericht is 1 uur en het 47 minuten geleden gemaakt, om 23:00 UTC
Verwachting geldig van 27 om 00 UTC tot 27 om 24 UTC
Wind 10 kt uit het oosten
Zicht 10 km of meer
Verspreide wolken op 2500 ft
Verspreide wolken op 4000 ft
Tijdelijke
van 27 om 09 UTC tot 27 om 24 UTC
Zicht: 3000 m
Weinig wolken op 1500 ft, Cumulonimbus.
Verspreide wolken op 1800 ft, Stapelwolken.
regenbuien

TAF: TFFF 262300Z 2700/2724 10010KT 9999 SCT025 SCT040 TEMPO 2709/2724 3000 SHRA FEW015CB SCT018TCU

Waarnemingen en weersverwachtingen van meer dan 4000 vliegvelden (METAR en TAF).

De beschikbare stations zijn de gele en rode punten op de kaart.

Ga met uw muis naar het station om de naam te zien.

Klik dan om waarnemingen en weersverwachtingen te zien.

kaart wijzigen: klik op de groene knoppen met een zwart kruis om in te zoomen, op de groene knop met een streepje om uit te zoomen of op de groene pijlen voor aangrenzende kaarten.


METAR-TAF: